sensor_id;sensor_type;location;lat;lon;timestamp;P1;durP1;ratioP1;P2;durP2;ratioP2
46339;SDS011;47273;49.274;8.708;2022-10-16T04:01:57;3.83;;;2.65;;
46339;SDS011;47273;49.274;8.708;2022-10-16T04:04:23;12.82;;;3.10;;
46339;SDS011;47273;49.274;8.708;2022-10-16T04:06:49;7.22;;;3.53;;
46339;SDS011;47273;49.274;8.708;2022-10-16T04:09:16;9.00;;;3.35;;
46339;SDS011;47273;49.274;8.708;2022-10-16T04:11:43;6.75;;;3.45;;
46339;SDS011;47273;49.274;8.708;2022-10-16T04:14:09;5.10;;;3.72;;
46339;SDS011;47273;49.274;8.708;2022-10-16T04:16:35;5.05;;;3.60;;
46339;SDS011;47273;49.274;8.708;2022-10-16T04:19:00;9.90;;;3.00;;
46339;SDS011;47273;49.274;8.708;2022-10-16T04:21:26;4.82;;;3.40;;
46339;SDS011;47273;49.274;8.708;2022-10-16T04:23:52;5.85;;;3.50;;
46339;SDS011;47273;49.274;8.708;2022-10-16T04:26:17;8.30;;;3.30;;
46339;SDS011;47273;49.274;8.708;2022-10-16T04:28:43;5.13;;;3.38;;
46339;SDS011;47273;49.274;8.708;2022-10-16T04:31:09;5.13;;;3.55;;
46339;SDS011;47273;49.274;8.708;2022-10-16T04:33:34;4.13;;;3.38;;
46339;SDS011;47273;49.274;8.708;2022-10-16T04:36:00;7.00;;;3.55;;
46339;SDS011;47273;49.274;8.708;2022-10-16T04:38:27;8.85;;;3.70;;
46339;SDS011;47273;49.274;8.708;2022-10-16T04:40:53;6.45;;;3.60;;
46339;SDS011;47273;49.274;8.708;2022-10-16T04:43:19;4.88;;;3.83;;
46339;SDS011;47273;49.274;8.708;2022-10-16T04:45:45;5.85;;;3.83;;
46339;SDS011;47273;49.274;8.708;2022-10-16T04:48:11;7.25;;;4.25;;
46339;SDS011;47273;49.274;8.708;2022-10-16T04:50:37;4.63;;;3.80;;
46339;SDS011;47273;49.274;8.708;2022-10-16T04:53:02;6.00;;;3.90;;
46339;SDS011;47273;49.274;8.708;2022-10-16T04:55:29;8.38;;;3.53;;
46339;SDS011;47273;49.274;8.708;2022-10-16T04:57:54;10.90;;;5.53;;
46339;SDS011;47273;49.274;8.708;2022-10-16T05:00:20;11.18;;;4.90;;
46339;SDS011;47273;49.274;8.708;2022-10-16T05:02:47;14.68;;;5.43;;
46339;SDS011;47273;49.274;8.708;2022-10-16T05:05:14;11.85;;;5.32;;
46339;SDS011;47273;49.274;8.708;2022-10-16T05:07:40;9.25;;;4.65;;
46339;SDS011;47273;49.274;8.708;2022-10-16T05:10:05;9.48;;;5.53;;
46339;SDS011;47273;49.274;8.708;2022-10-16T05:12:31;10.50;;;5.72;;
46339;SDS011;47273;49.274;8.708;2022-10-16T05:14:57;7.55;;;4.82;;
46339;SDS011;47273;49.274;8.708;2022-10-16T05:17:24;11.75;;;5.13;;
46339;SDS011;47273;49.274;8.708;2022-10-16T05:19:50;12.38;;;4.88;;
46339;SDS011;47273;49.274;8.708;2022-10-16T05:22:16;11.18;;;4.57;;
46339;SDS011;47273;49.274;8.708;2022-10-16T05:24:41;8.55;;;4.80;;
46339;SDS011;47273;49.274;8.708;2022-10-16T05:27:07;9.63;;;4.85;;
46339;SDS011;47273;49.274;8.708;2022-10-16T05:29:33;5.68;;;4.05;;
46339;SDS011;47273;49.274;8.708;2022-10-16T05:31:58;9.48;;;4.35;;
46339;SDS011;47273;49.274;8.708;2022-10-16T05:34:26;13.68;;;6.30;;
46339;SDS011;47273;49.274;8.708;2022-10-16T05:36:52;9.77;;;5.90;;
46339;SDS011;47273;49.274;8.708;2022-10-16T05:39:17;10.68;;;5.43;;
46339;SDS011;47273;49.274;8.708;2022-10-16T05:41:43;10.95;;;5.53;;
46339;SDS011;47273;49.274;8.708;2022-10-16T05:44:09;9.95;;;4.90;;
46339;SDS011;47273;49.274;8.708;2022-10-16T05:46:36;9.00;;;5.50;;
46339;SDS011;47273;49.274;8.708;2022-10-16T05:49:01;7.68;;;4.43;;
46339;SDS011;47273;49.274;8.708;2022-10-16T05:51:27;13.73;;;4.65;;
46339;SDS011;47273;49.274;8.708;2022-10-16T05:53:53;16.67;;;4.43;;
46339;SDS011;47273;49.274;8.708;2022-10-16T05:56:19;8.68;;;3.85;;
46339;SDS011;47273;49.274;8.708;2022-10-16T05:58:45;9.45;;;4.50;;
46339;SDS011;47273;49.274;8.708;2022-10-16T06:01:12;7.07;;;4.30;;
46339;SDS011;47273;49.274;8.708;2022-10-16T06:03:41;4.57;;;3.42;;
46339;SDS011;47273;49.274;8.708;2022-10-16T06:06:11;6.35;;;3.50;;
46339;SDS011;47273;49.274;8.708;2022-10-16T06:08:42;6.10;;;4.03;;
46339;SDS011;47273;49.274;8.708;2022-10-16T06:11:11;5.97;;;3.92;;
46339;SDS011;47273;49.274;8.708;2022-10-16T06:13:44;7.70;;;4.05;;
46339;SDS011;47273;49.274;8.708;2022-10-16T06:16:11;9.05;;;3.55;;
46339;SDS011;47273;49.274;8.708;2022-10-16T06:18:37;5.57;;;3.88;;
46339;SDS011;47273;49.274;8.708;2022-10-16T06:21:07;10.25;;;4.57;;
46339;SDS011;47273;49.274;8.708;2022-10-16T06:23:34;8.50;;;3.95;;
46339;SDS011;47273;49.274;8.708;2022-10-16T06:26:06;11.60;;;3.55;;
46339;SDS011;47273;49.274;8.708;2022-10-16T06:28:36;8.48;;;3.90;;
46339;SDS011;47273;49.274;8.708;2022-10-16T06:31:03;11.23;;;3.97;;
46339;SDS011;47273;49.274;8.708;2022-10-16T06:33:30;5.07;;;3.60;;
46339;SDS011;47273;49.274;8.708;2022-10-16T06:36:00;10.20;;;4.20;;
46339;SDS011;47273;49.274;8.708;2022-10-16T06:38:31;6.75;;;4.03;;
46339;SDS011;47273;49.274;8.708;2022-10-16T06:40:57;5.13;;;3.92;;
46339;SDS011;47273;49.274;8.708;2022-10-16T06:43:23;9.35;;;3.95;;
46339;SDS011;47273;49.274;8.708;2022-10-16T06:45:50;6.55;;;3.67;;
46339;SDS011;47273;49.274;8.708;2022-10-16T06:48:19;8.73;;;4.38;;
46339;SDS011;47273;49.274;8.708;2022-10-16T06:50:55;6.00;;;3.88;;
46339;SDS011;47273;49.274;8.708;2022-10-16T06:53:25;5.93;;;4.00;;
46339;SDS011;47273;49.274;8.708;2022-10-16T06:55:57;5.45;;;3.60;;
46339;SDS011;47273;49.274;8.708;2022-10-16T06:58:23;5.57;;;3.92;;
46339;SDS011;47273;49.274;8.708;2022-10-16T07:00:54;5.78;;;3.40;;
46339;SDS011;47273;49.274;8.708;2022-10-16T07:03:21;6.22;;;3.33;;
46339;SDS011;47273;49.274;8.708;2022-10-16T07:05:46;10.52;;;3.50;;
46339;SDS011;47273;49.274;8.708;2022-10-16T07:08:12;4.75;;;3.38;;
46339;SDS011;47273;49.274;8.708;2022-10-16T07:10:37;8.23;;;3.22;;
46339;SDS011;47273;49.274;8.708;2022-10-16T07:13:03;5.82;;;3.20;;
46339;SDS011;47273;49.274;8.708;2022-10-16T07:15:29;5.03;;;2.65;;
46339;SDS011;47273;49.274;8.708;2022-10-16T07:17:55;6.13;;;2.70;;
46339;SDS011;47273;49.274;8.708;2022-10-16T07:20:20;7.03;;;4.00;;
46339;SDS011;47273;49.274;8.708;2022-10-16T07:22:46;8.18;;;4.05;;
46339;SDS011;47273;49.274;8.708;2022-10-16T07:25:12;6.70;;;3.90;;
46339;SDS011;47273;49.274;8.708;2022-10-16T07:27:37;8.35;;;4.43;;
46339;SDS011;47273;49.274;8.708;2022-10-16T07:30:04;7.88;;;4.40;;
46339;SDS011;47273;49.274;8.708;2022-10-16T07:32:30;7.25;;;4.45;;
46339;SDS011;47273;49.274;8.708;2022-10-16T07:34:56;8.90;;;5.10;;
46339;SDS011;47273;49.274;8.708;2022-10-16T07:37:22;6.63;;;4.55;;
46339;SDS011;47273;49.274;8.708;2022-10-16T07:39:47;9.25;;;5.50;;
46339;SDS011;47273;49.274;8.708;2022-10-16T07:42:13;6.78;;;4.40;;
46339;SDS011;47273;49.274;8.708;2022-10-16T07:44:39;8.90;;;5.65;;
46339;SDS011;47273;49.274;8.708;2022-10-16T07:47:05;10.35;;;5.28;;
46339;SDS011;47273;49.274;8.708;2022-10-16T07:49:32;10.05;;;4.85;;
46339;SDS011;47273;49.274;8.708;2022-10-16T07:51:57;10.73;;;5.40;;
46339;SDS011;47273;49.274;8.708;2022-10-16T07:54:23;6.63;;;4.50;;
46339;SDS011;47273;49.274;8.708;2022-10-16T07:56:49;8.32;;;4.95;;
46339;SDS011;47273;49.274;8.708;2022-10-16T07:59:14;7.93;;;4.32;;
46339;SDS011;47273;49.274;8.708;2022-10-16T08:01:48;8.77;;;5.32;;
46339;SDS011;47273;49.274;8.708;2022-10-16T08:04:14;7.00;;;5.00;;
46339;SDS011;47273;49.274;8.708;2022-10-16T08:06:42;6.55;;;4.88;;
46339;SDS011;47273;49.274;8.708;2022-10-16T08:09:09;7.55;;;5.03;;
46339;SDS011;47273;49.274;8.708;2022-10-16T08:11:48;9.40;;;4.90;;
46339;SDS011;47273;49.274;8.708;2022-10-16T08:14:13;7.88;;;4.55;;
46339;SDS011;47273;49.274;8.708;2022-10-16T08:16:41;12.13;;;4.88;;
46339;SDS011;47273;49.274;8.708;2022-10-16T08:19:07;8.32;;;4.88;;
46339;SDS011;47273;49.274;8.708;2022-10-16T08:21:32;7.47;;;5.22;;
46339;SDS011;47273;49.274;8.708;2022-10-16T08:23:58;6.00;;;4.22;;
46339;SDS011;47273;49.274;8.708;2022-10-16T08:26:28;5.90;;;4.53;;
46339;SDS011;47273;49.274;8.708;2022-10-16T08:28:55;7.82;;;5.00;;
46339;SDS011;47273;49.274;8.708;2022-10-16T08:31:23;13.55;;;5.40;;
46339;SDS011;47273;49.274;8.708;2022-10-16T08:33:49;9.90;;;5.00;;
46339;SDS011;47273;49.274;8.708;2022-10-16T08:36:17;8.15;;;4.78;;
46339;SDS011;47273;49.274;8.708;2022-10-16T08:38:51;9.75;;;4.65;;
46339;SDS011;47273;49.274;8.708;2022-10-16T08:41:22;8.90;;;4.78;;
46339;SDS011;47273;49.274;8.708;2022-10-16T08:49:14;10.40;;;4.78;;
46339;SDS011;47273;49.274;8.708;2022-10-16T08:51:42;10.00;;;4.88;;
46339;SDS011;47273;49.274;8.708;2022-10-16T08:56:38;5.47;;;4.18;;
46339;SDS011;47273;49.274;8.708;2022-10-16T08:59:04;11.02;;;4.40;;
46339;SDS011;47273;49.274;8.708;2022-10-16T09:01:40;12.27;;;4.07;;
46339;SDS011;47273;49.274;8.708;2022-10-16T09:10:03;8.13;;;4.22;;
46339;SDS011;47273;49.274;8.708;2022-10-16T09:18:00;5.60;;;4.13;;
46339;SDS011;47273;49.274;8.708;2022-10-16T09:23:35;6.57;;;4.57;;
46339;SDS011;47273;49.274;8.708;2022-10-16T09:26:03;5.15;;;3.80;;
46339;SDS011;47273;49.274;8.708;2022-10-16T09:28:30;7.57;;;4.35;;
46339;SDS011;47273;49.274;8.708;2022-10-16T09:30:56;5.32;;;3.83;;
46339;SDS011;47273;49.274;8.708;2022-10-16T09:33:23;7.57;;;4.03;;
46339;SDS011;47273;49.274;8.708;2022-10-16T09:35:56;9.02;;;4.35;;
46339;SDS011;47273;49.274;8.708;2022-10-16T09:38:44;5.05;;;3.83;;
46339;SDS011;47273;49.274;8.708;2022-10-16T09:43:54;5.90;;;3.92;;
46339;SDS011;47273;49.274;8.708;2022-10-16T09:57:49;14.63;;;4.18;;
46339;SDS011;47273;49.274;8.708;2022-10-16T10:05:57;4.32;;;3.42;;
46339;SDS011;47273;49.274;8.708;2022-10-16T10:08:23;8.15;;;3.78;;
46339;SDS011;47273;49.274;8.708;2022-10-16T10:10:49;4.40;;;3.70;;
46339;SDS011;47273;49.274;8.708;2022-10-16T10:13:21;8.45;;;4.70;;
46339;SDS011;47273;49.274;8.708;2022-10-16T10:15:49;6.97;;;4.20;;
46339;SDS011;47273;49.274;8.708;2022-10-16T10:18:20;5.72;;;4.18;;
46339;SDS011;47273;49.274;8.708;2022-10-16T10:20:58;7.22;;;4.07;;
46339;SDS011;47273;49.274;8.708;2022-10-16T10:23:26;6.25;;;4.47;;
46339;SDS011;47273;49.274;8.708;2022-10-16T10:26:12;5.75;;;4.35;;
46339;SDS011;47273;49.274;8.708;2022-10-16T10:31:51;5.80;;;3.90;;
46339;SDS011;47273;49.274;8.708;2022-10-16T10:34:43;7.20;;;3.92;;
46339;SDS011;47273;49.274;8.708;2022-10-16T10:40:23;7.30;;;4.30;;
46339;SDS011;47273;49.274;8.708;2022-10-16T10:43:05;9.75;;;3.63;;
46339;SDS011;47273;49.274;8.708;2022-10-16T10:51:35;4.95;;;3.67;;
46339;SDS011;47273;49.274;8.708;2022-10-16T10:57:02;5.75;;;3.90;;
46339;SDS011;47273;49.274;8.708;2022-10-16T10:59:54;8.68;;;4.07;;
46339;SDS011;47273;49.274;8.708;2022-10-16T11:05:48;6.45;;;4.60;;
46339;SDS011;47273;49.274;8.708;2022-10-16T11:08:32;6.53;;;4.40;;
46339;SDS011;47273;49.274;8.708;2022-10-16T11:11:16;8.18;;;4.85;;
46339;SDS011;47273;49.274;8.708;2022-10-16T11:17:56;5.47;;;4.72;;
46339;SDS011;47273;49.274;8.708;2022-10-16T11:26:54;6.55;;;5.07;;
46339;SDS011;47273;49.274;8.708;2022-10-16T11:29:25;5.03;;;4.13;;
46339;SDS011;47273;49.274;8.708;2022-10-16T11:31:58;6.05;;;4.07;;
46339;SDS011;47273;49.274;8.708;2022-10-16T11:34:43;5.90;;;4.10;;
46339;SDS011;47273;49.274;8.708;2022-10-16T11:37:17;5.05;;;4.10;;
46339;SDS011;47273;49.274;8.708;2022-10-16T11:39:47;7.95;;;4.18;;
46339;SDS011;47273;49.274;8.708;2022-10-16T11:44:55;4.57;;;3.95;;
46339;SDS011;47273;49.274;8.708;2022-10-16T11:47:33;5.10;;;4.20;;
46339;SDS011;47273;49.274;8.708;2022-10-16T11:55:24;6.82;;;4.35;;
46339;SDS011;47273;49.274;8.708;2022-10-16T11:58:01;4.50;;;4.05;;
46339;SDS011;47273;49.274;8.708;2022-10-16T12:00:41;6.80;;;4.50;;
46339;SDS011;47273;49.274;8.708;2022-10-16T12:08:51;8.20;;;4.65;;
46339;SDS011;47273;49.274;8.708;2022-10-16T12:16:37;6.28;;;4.82;;
46339;SDS011;47273;49.274;8.708;2022-10-16T12:19:16;5.32;;;4.72;;
46339;SDS011;47273;49.274;8.708;2022-10-16T12:21:43;6.63;;;4.53;;
46339;SDS011;47273;49.274;8.708;2022-10-16T12:24:21;7.15;;;4.80;;
46339;SDS011;47273;49.274;8.708;2022-10-16T12:26:50;14.43;;;5.15;;
46339;SDS011;47273;49.274;8.708;2022-10-16T12:29:28;5.75;;;5.03;;
46339;SDS011;47273;49.274;8.708;2022-10-16T12:32:04;6.63;;;5.18;;
46339;SDS011;47273;49.274;8.708;2022-10-16T12:34:37;5.13;;;4.10;;
46339;SDS011;47273;49.274;8.708;2022-10-16T12:37:21;6.18;;;4.68;;
46339;SDS011;47273;49.274;8.708;2022-10-16T12:39:50;5.35;;;4.40;;
46339;SDS011;47273;49.274;8.708;2022-10-16T12:44:53;12.87;;;4.57;;
46339;SDS011;47273;49.274;8.708;2022-10-16T12:47:54;5.50;;;4.60;;
46339;SDS011;47273;49.274;8.708;2022-10-16T12:50:25;5.18;;;4.20;;
46339;SDS011;47273;49.274;8.708;2022-10-16T12:53:00;5.00;;;4.47;;
46339;SDS011;47273;49.274;8.708;2022-10-16T12:55:27;5.85;;;4.40;;
46339;SDS011;47273;49.274;8.708;2022-10-16T12:58:14;9.55;;;3.95;;
46339;SDS011;47273;49.274;8.708;2022-10-16T13:14:54;9.70;;;4.40;;
46339;SDS011;47273;49.274;8.708;2022-10-16T13:29:24;6.00;;;3.40;;
46339;SDS011;47273;49.274;8.708;2022-10-16T13:31:55;5.10;;;3.60;;
46339;SDS011;47273;49.274;8.708;2022-10-16T13:34:25;8.02;;;4.20;;
46339;SDS011;47273;49.274;8.708;2022-10-16T13:36:54;6.80;;;4.13;;
46339;SDS011;47273;49.274;8.708;2022-10-16T13:39:25;14.68;;;3.88;;
46339;SDS011;47273;49.274;8.708;2022-10-16T13:44:54;7.07;;;4.75;;
46339;SDS011;47273;49.274;8.708;2022-10-16T13:47:22;8.23;;;4.53;;
46339;SDS011;47273;49.274;8.708;2022-10-16T13:50:05;5.90;;;4.25;;
46339;SDS011;47273;49.274;8.708;2022-10-16T13:52:36;8.15;;;4.20;;
46339;SDS011;47273;49.274;8.708;2022-10-16T13:55:03;8.60;;;4.05;;
46339;SDS011;47273;49.274;8.708;2022-10-16T13:57:35;5.50;;;3.90;;
46339;SDS011;47273;49.274;8.708;2022-10-16T14:00:00;6.75;;;4.32;;
46339;SDS011;47273;49.274;8.708;2022-10-16T14:02:36;5.95;;;4.38;;
46339;SDS011;47273;49.274;8.708;2022-10-16T14:05:07;13.02;;;5.05;;
46339;SDS011;47273;49.274;8.708;2022-10-16T14:07:35;9.95;;;4.38;;
46339;SDS011;47273;49.274;8.708;2022-10-16T14:10:19;10.15;;;4.47;;
46339;SDS011;47273;49.274;8.708;2022-10-16T14:13:05;11.55;;;5.20;;
46339;SDS011;47273;49.274;8.708;2022-10-16T14:15:32;11.98;;;4.50;;
46339;SDS011;47273;49.274;8.708;2022-10-16T14:18:00;9.05;;;4.93;;
46339;SDS011;47273;49.274;8.708;2022-10-16T14:20:27;9.10;;;4.30;;
46339;SDS011;47273;49.274;8.708;2022-10-16T14:23:02;7.45;;;4.05;;
46339;SDS011;47273;49.274;8.708;2022-10-16T14:25:30;9.45;;;4.07;;
46339;SDS011;47273;49.274;8.708;2022-10-16T14:30:55;7.95;;;4.15;;
46339;SDS011;47273;49.274;8.708;2022-10-16T14:33:24;5.85;;;3.92;;
46339;SDS011;47273;49.274;8.708;2022-10-16T14:36:03;8.88;;;3.83;;
46339;SDS011;47273;49.274;8.708;2022-10-16T14:38:35;8.07;;;3.70;;
46339;SDS011;47273;49.274;8.708;2022-10-16T14:41:03;5.07;;;3.80;;
46339;SDS011;47273;49.274;8.708;2022-10-16T14:43:40;5.43;;;3.83;;
46339;SDS011;47273;49.274;8.708;2022-10-16T14:48:51;7.35;;;3.80;;
46339;SDS011;47273;49.274;8.708;2022-10-16T14:51:23;5.30;;;3.85;;
46339;SDS011;47273;49.274;8.708;2022-10-16T14:53:48;13.93;;;4.20;;
46339;SDS011;47273;49.274;8.708;2022-10-16T14:56:24;7.85;;;4.00;;
46339;SDS011;47273;49.274;8.708;2022-10-16T14:58:54;5.05;;;3.70;;
46339;SDS011;47273;49.274;8.708;2022-10-16T15:01:21;5.80;;;3.95;;
46339;SDS011;47273;49.274;8.708;2022-10-16T15:03:47;8.05;;;3.92;;
46339;SDS011;47273;49.274;8.708;2022-10-16T15:06:13;8.52;;;4.00;;
46339;SDS011;47273;49.274;8.708;2022-10-16T15:08:40;9.40;;;4.55;;
46339;SDS011;47273;49.274;8.708;2022-10-16T15:11:16;6.32;;;4.10;;
46339;SDS011;47273;49.274;8.708;2022-10-16T15:13:43;9.80;;;4.45;;
46339;SDS011;47273;49.274;8.708;2022-10-16T15:16:14;10.65;;;5.05;;
46339;SDS011;47273;49.274;8.708;2022-10-16T15:18:41;13.07;;;6.53;;
46339;SDS011;47273;49.274;8.708;2022-10-16T15:21:07;10.55;;;5.25;;
46339;SDS011;47273;49.274;8.708;2022-10-16T15:23:36;27.73;;;18.40;;
46339;SDS011;47273;49.274;8.708;2022-10-16T15:26:03;27.75;;;17.42;;
46339;SDS011;47273;49.274;8.708;2022-10-16T15:28:29;12.70;;;6.45;;
46339;SDS011;47273;49.274;8.708;2022-10-16T15:30:55;9.35;;;5.65;;
46339;SDS011;47273;49.274;8.708;2022-10-16T15:33:26;4.82;;;3.90;;
46339;SDS011;47273;49.274;8.708;2022-10-16T15:35:57;9.98;;;4.13;;
46339;SDS011;47273;49.274;8.708;2022-10-16T15:38:23;7.65;;;3.80;;
46339;SDS011;47273;49.274;8.708;2022-10-16T15:40:50;11.18;;;5.25;;
46339;SDS011;47273;49.274;8.708;2022-10-16T15:43:15;16.95;;;4.38;;
46339;SDS011;47273;49.274;8.708;2022-10-16T15:45:41;9.07;;;3.95;;
46339;SDS011;47273;49.274;8.708;2022-10-16T15:48:11;7.68;;;3.75;;
46339;SDS011;47273;49.274;8.708;2022-10-16T15:50:38;7.05;;;4.57;;
46339;SDS011;47273;49.274;8.708;2022-10-16T15:53:05;7.28;;;3.97;;
46339;SDS011;47273;49.274;8.708;2022-10-16T15:55:31;5.60;;;3.65;;
46339;SDS011;47273;49.274;8.708;2022-10-16T15:57:56;6.57;;;4.13;;
46339;SDS011;47273;49.274;8.708;2022-10-16T16:00:22;9.10;;;3.67;;
46339;SDS011;47273;49.274;8.708;2022-10-16T16:02:51;7.35;;;4.20;;
46339;SDS011;47273;49.274;8.708;2022-10-16T16:05:17;5.43;;;4.05;;
46339;SDS011;47273;49.274;8.708;2022-10-16T16:07:43;7.65;;;4.10;;
46339;SDS011;47273;49.274;8.708;2022-10-16T16:10:09;6.55;;;4.10;;
46339;SDS011;47273;49.274;8.708;2022-10-16T16:12:36;6.10;;;4.10;;
46339;SDS011;47273;49.274;8.708;2022-10-16T16:15:03;9.95;;;4.60;;
46339;SDS011;47273;49.274;8.708;2022-10-16T16:17:31;7.65;;;4.50;;
46339;SDS011;47273;49.274;8.708;2022-10-16T16:20:00;8.00;;;4.20;;
46339;SDS011;47273;49.274;8.708;2022-10-16T16:22:27;15.02;;;4.40;;
46339;SDS011;47273;49.274;8.708;2022-10-16T16:24:52;13.45;;;4.57;;
46339;SDS011;47273;49.274;8.708;2022-10-16T16:27:18;6.63;;;3.60;;
46339;SDS011;47273;49.274;8.708;2022-10-16T16:29:49;9.15;;;3.92;;
46339;SDS011;47273;49.274;8.708;2022-10-16T16:32:15;9.63;;;4.47;;
46339;SDS011;47273;49.274;8.708;2022-10-16T16:34:41;8.48;;;4.28;;
46339;SDS011;47273;49.274;8.708;2022-10-16T16:37:07;7.82;;;4.55;;
46339;SDS011;47273;49.274;8.708;2022-10-16T16:39:32;9.80;;;5.70;;
46339;SDS011;47273;49.274;8.708;2022-10-16T16:41:58;6.80;;;4.63;;
46339;SDS011;47273;49.274;8.708;2022-10-16T16:44:24;10.77;;;4.18;;
46339;SDS011;47273;49.274;8.708;2022-10-16T16:46:50;6.25;;;3.80;;
46339;SDS011;47273;49.274;8.708;2022-10-16T16:49:16;9.38;;;3.90;;
46339;SDS011;47273;49.274;8.708;2022-10-16T16:51:42;8.48;;;4.03;;
46339;SDS011;47273;49.274;8.708;2022-10-16T16:54:08;5.80;;;4.30;;
46339;SDS011;47273;49.274;8.708;2022-10-16T16:56:35;6.95;;;3.85;;
46339;SDS011;47273;49.274;8.708;2022-10-16T16:59:04;12.73;;;4.15;;
46339;SDS011;47273;49.274;8.708;2022-10-16T17:01:30;13.98;;;5.60;;
46339;SDS011;47273;49.274;8.708;2022-10-16T17:03:56;18.63;;;8.32;;
46339;SDS011;47273;49.274;8.708;2022-10-16T17:06:27;18.77;;;8.25;;
46339;SDS011;47273;49.274;8.708;2022-10-16T17:09:00;25.05;;;8.77;;
46339;SDS011;47273;49.274;8.708;2022-10-16T17:11:27;16.73;;;8.65;;
46339;SDS011;47273;49.274;8.708;2022-10-16T17:13:54;13.07;;;6.63;;
46339;SDS011;47273;49.274;8.708;2022-10-16T17:16:21;8.20;;;5.30;;
46339;SDS011;47273;49.274;8.708;2022-10-16T17:18:52;8.73;;;5.70;;
46339;SDS011;47273;49.274;8.708;2022-10-16T17:21:19;11.68;;;4.93;;
46339;SDS011;47273;49.274;8.708;2022-10-16T17:23:44;13.50;;;5.22;;
46339;SDS011;47273;49.274;8.708;2022-10-16T17:26:14;14.05;;;7.32;;
46339;SDS011;47273;49.274;8.708;2022-10-16T17:28:42;8.50;;;5.13;;
46339;SDS011;47273;49.274;8.708;2022-10-16T17:33:34;9.43;;;4.15;;
46339;SDS011;47273;49.274;8.708;2022-10-16T17:36:00;14.32;;;4.03;;
46339;SDS011;47273;49.274;8.708;2022-10-16T17:38:26;14.50;;;5.78;;
46339;SDS011;47273;49.274;8.708;2022-10-16T17:41:08;7.32;;;5.15;;
46339;SDS011;47273;49.274;8.708;2022-10-16T17:46:10;10.27;;;5.03;;
46339;SDS011;47273;49.274;8.708;2022-10-16T17:48:41;8.65;;;4.65;;
46339;SDS011;47273;49.274;8.708;2022-10-16T17:51:10;10.50;;;5.38;;
46339;SDS011;47273;49.274;8.708;2022-10-16T17:53:37;8.02;;;5.40;;
46339;SDS011;47273;49.274;8.708;2022-10-16T17:56:10;9.68;;;6.47;;
46339;SDS011;47273;49.274;8.708;2022-10-16T17:58:37;16.85;;;7.20;;
46339;SDS011;47273;49.274;8.708;2022-10-16T18:01:17;12.63;;;4.80;;
46339;SDS011;47273;49.274;8.708;2022-10-16T18:03:51;7.75;;;5.00;;
46339;SDS011;47273;49.274;8.708;2022-10-16T18:06:20;10.00;;;5.35;;
46339;SDS011;47273;49.274;8.708;2022-10-16T18:08:46;12.00;;;4.97;;
46339;SDS011;47273;49.274;8.708;2022-10-16T18:11:12;6.95;;;4.50;;
46339;SDS011;47273;49.274;8.708;2022-10-16T18:16:08;8.32;;;4.88;;
46339;SDS011;47273;49.274;8.708;2022-10-16T18:18:38;10.93;;;4.60;;
46339;SDS011;47273;49.274;8.708;2022-10-16T18:21:06;14.82;;;5.13;;
46339;SDS011;47273;49.274;8.708;2022-10-16T18:23:35;9.65;;;4.68;;
46339;SDS011;47273;49.274;8.708;2022-10-16T18:26:01;13.13;;;4.53;;
46339;SDS011;47273;49.274;8.708;2022-10-16T18:28:28;11.85;;;4.90;;
46339;SDS011;47273;49.274;8.708;2022-10-16T18:30:55;20.83;;;5.72;;
46339;SDS011;47273;49.274;8.708;2022-10-16T18:33:26;14.13;;;7.75;;
46339;SDS011;47273;49.274;8.708;2022-10-16T18:35:54;9.25;;;5.20;;
46339;SDS011;47273;49.274;8.708;2022-10-16T18:38:24;10.43;;;5.20;;
46339;SDS011;47273;49.274;8.708;2022-10-16T18:40:49;11.45;;;5.10;;
46339;SDS011;47273;49.274;8.708;2022-10-16T18:43:15;12.70;;;6.35;;
46339;SDS011;47273;49.274;8.708;2022-10-16T18:48:31;12.68;;;6.53;;
46339;SDS011;47273;49.274;8.708;2022-10-16T18:53:40;17.17;;;9.15;;
46339;SDS011;47273;49.274;8.708;2022-10-16T18:56:07;21.48;;;10.90;;
46339;SDS011;47273;49.274;8.708;2022-10-16T18:58:34;15.30;;;5.93;;
46339;SDS011;47273;49.274;8.708;2022-10-16T19:01:07;7.68;;;5.90;;
46339;SDS011;47273;49.274;8.708;2022-10-16T19:03:35;16.23;;;5.28;;
46339;SDS011;47273;49.274;8.708;2022-10-16T19:06:03;6.68;;;4.65;;
46339;SDS011;47273;49.274;8.708;2022-10-16T19:08:32;13.50;;;5.68;;
46339;SDS011;47273;49.274;8.708;2022-10-16T19:11:17;13.65;;;5.18;;
46339;SDS011;47273;49.274;8.708;2022-10-16T19:13:44;11.57;;;5.32;;
46339;SDS011;47273;49.274;8.708;2022-10-16T19:16:16;11.13;;;5.03;;
46339;SDS011;47273;49.274;8.708;2022-10-16T19:18:50;9.88;;;4.47;;
46339;SDS011;47273;49.274;8.708;2022-10-16T19:21:36;16.17;;;5.20;;
46339;SDS011;47273;49.274;8.708;2022-10-16T19:24:04;8.02;;;5.10;;
46339;SDS011;47273;49.274;8.708;2022-10-16T19:26:34;12.48;;;4.88;;
46339;SDS011;47273;49.274;8.708;2022-10-16T19:29:01;8.63;;;5.30;;
46339;SDS011;47273;49.274;8.708;2022-10-16T19:31:30;7.18;;;4.40;;
46339;SDS011;47273;49.274;8.708;2022-10-16T19:33:59;8.82;;;4.97;;
46339;SDS011;47273;49.274;8.708;2022-10-16T19:36:29;17.85;;;4.68;;
46339;SDS011;47273;49.274;8.708;2022-10-16T19:38:57;14.13;;;4.60;;
46339;SDS011;47273;49.274;8.708;2022-10-16T19:41:31;21.00;;;5.78;;
46339;SDS011;47273;49.274;8.708;2022-10-16T19:44:02;8.70;;;4.78;;
46339;SDS011;47273;49.274;8.708;2022-10-16T19:46:30;12.82;;;5.22;;
46339;SDS011;47273;49.274;8.708;2022-10-16T19:49:04;14.32;;;4.88;;
46339;SDS011;47273;49.274;8.708;2022-10-16T19:51:32;8.73;;;4.95;;
46339;SDS011;47273;49.274;8.708;2022-10-16T19:54:00;8.57;;;4.50;;
46339;SDS011;47273;49.274;8.708;2022-10-16T19:56:28;9.05;;;5.10;;
46339;SDS011;47273;49.274;8.708;2022-10-16T19:58:55;9.68;;;5.22;;
46339;SDS011;47273;49.274;8.708;2022-10-16T20:01:23;8.63;;;4.90;;
46339;SDS011;47273;49.274;8.708;2022-10-16T20:03:51;7.28;;;5.25;;
46339;SDS011;47273;49.274;8.708;2022-10-16T20:06:17;11.75;;;5.72;;
46339;SDS011;47273;49.274;8.708;2022-10-16T20:08:44;8.63;;;5.63;;
46339;SDS011;47273;49.274;8.708;2022-10-16T20:11:12;7.55;;;6.07;;
46339;SDS011;47273;49.274;8.708;2022-10-16T20:13:40;12.10;;;6.50;;
46339;SDS011;47273;49.274;8.708;2022-10-16T20:16:06;11.25;;;6.28;;
46339;SDS011;47273;49.274;8.708;2022-10-16T20:18:32;14.02;;;5.47;;
46339;SDS011;47273;49.274;8.708;2022-10-16T20:20:58;10.77;;;5.43;;
46339;SDS011;47273;49.274;8.708;2022-10-16T20:23:24;11.02;;;5.30;;
46339;SDS011;47273;49.274;8.708;2022-10-16T20:25:50;11.55;;;6.45;;
46339;SDS011;47273;49.274;8.708;2022-10-16T20:28:17;8.60;;;4.60;;
46339;SDS011;47273;49.274;8.708;2022-10-16T20:30:45;14.30;;;6.55;;
46339;SDS011;47273;49.274;8.708;2022-10-16T20:33:15;22.98;;;6.78;;
46339;SDS011;47273;49.274;8.708;2022-10-16T20:35:42;9.10;;;5.70;;
46339;SDS011;47273;49.274;8.708;2022-10-16T20:38:10;13.75;;;6.47;;
46339;SDS011;47273;49.274;8.708;2022-10-16T20:40:37;9.30;;;6.57;;
46339;SDS011;47273;49.274;8.708;2022-10-16T20:43:05;14.68;;;7.45;;
46339;SDS011;47273;49.274;8.708;2022-10-16T20:45:32;9.13;;;6.78;;
46339;SDS011;47273;49.274;8.708;2022-10-16T20:47:58;15.27;;;6.80;;
46339;SDS011;47273;49.274;8.708;2022-10-16T20:50:26;15.02;;;6.82;;
46339;SDS011;47273;49.274;8.708;2022-10-16T20:52:54;15.23;;;7.13;;
46339;SDS011;47273;49.274;8.708;2022-10-16T20:55:20;9.15;;;6.57;;
46339;SDS011;47273;49.274;8.708;2022-10-16T20:57:45;8.98;;;6.47;;
46339;SDS011;47273;49.274;8.708;2022-10-16T21:00:11;17.85;;;7.20;;
46339;SDS011;47273;49.274;8.708;2022-10-16T21:02:37;9.50;;;6.57;;
46339;SDS011;47273;49.274;8.708;2022-10-16T21:05:03;8.15;;;6.22;;
46339;SDS011;47273;49.274;8.708;2022-10-16T21:10:29;11.13;;;6.80;;
46339;SDS011;47273;49.274;8.708;2022-10-16T21:40:27;11.60;;;6.13;;
46339;SDS011;47273;49.274;8.708;2022-10-16T21:42:56;11.27;;;6.80;;
46339;SDS011;47273;49.274;8.708;2022-10-16T21:45:22;7.93;;;5.88;;